sensor_id;sensor_type;location;lat;lon;timestamp;pressure;altitude;pressure_sealevel;temperature;humidity
84055;BME280;74141;51.504;7.122;2024-03-23T00:52:37;100230.91;;;6.63;100.00
84055;BME280;74141;51.504;7.122;2024-03-23T00:55:02;100227.38;;;6.64;100.00
84055;BME280;74141;51.504;7.122;2024-03-23T00:57:28;100235.28;;;6.62;100.00
84055;BME280;74141;51.504;7.122;2024-03-23T00:59:53;100229.97;;;6.65;100.00
84055;BME280;74141;51.504;7.122;2024-03-23T01:02:19;100218.63;;;6.65;100.00
84055;BME280;74141;51.504;7.122;2024-03-23T01:04:44;100218.63;;;6.65;100.00
84055;BME280;74141;51.504;7.122;2024-03-23T01:07:09;100208.34;;;6.59;100.00
84055;BME280;74141;51.504;7.122;2024-03-23T01:09:34;100217.31;;;6.52;100.00
84055;BME280;74141;51.504;7.122;2024-03-23T01:12:00;100214.72;;;6.50;100.00
84055;BME280;74141;51.504;7.122;2024-03-23T01:14:26;100223.63;;;6.45;100.00
84055;BME280;74141;51.504;7.122;2024-03-23T01:16:52;100212.44;;;6.40;100.00
84055;BME280;74141;51.504;7.122;2024-03-23T01:19:17;100206.44;;;6.36;100.00
84055;BME280;74141;51.504;7.122;2024-03-23T01:21:42;100208.25;;;6.34;100.00
84055;BME280;74141;51.504;7.122;2024-03-23T01:24:08;100216.94;;;6.35;100.00
84055;BME280;74141;51.504;7.122;2024-03-23T01:26:35;100199.53;;;6.34;100.00
84055;BME280;74141;51.504;7.122;2024-03-23T01:29:02;100202.25;;;6.31;100.00
84055;BME280;74141;51.504;7.122;2024-03-23T01:31:27;100188.38;;;6.29;100.00
84055;BME280;74141;51.504;7.122;2024-03-23T01:33:52;100190.91;;;6.32;100.00
84055;BME280;74141;51.504;7.122;2024-03-23T01:36:18;100178.72;;;6.31;100.00
84055;BME280;74141;51.504;7.122;2024-03-23T01:38:43;100186.66;;;6.28;100.00
84055;BME280;74141;51.504;7.122;2024-03-23T01:41:08;100191.88;;;6.28;100.00
84055;BME280;74141;51.504;7.122;2024-03-23T01:43:34;100181.50;;;6.24;100.00
84055;BME280;74141;51.504;7.122;2024-03-23T01:45:59;100187.66;;;6.23;100.00
84055;BME280;74141;51.504;7.122;2024-03-23T01:48:25;100194.69;;;6.21;100.00
84055;BME280;74141;51.504;7.122;2024-03-23T01:50:50;100186.84;;;6.21;100.00
84055;BME280;74141;51.504;7.122;2024-03-23T01:53:15;100192.19;;;6.17;100.00
84055;BME280;74141;51.504;7.122;2024-03-23T01:55:47;100186.31;;;6.10;100.00
84055;BME280;74141;51.504;7.122;2024-03-23T01:58:12;100174.75;;;6.17;100.00
84055;BME280;74141;51.504;7.122;2024-03-23T02:00:37;100153.75;;;6.20;100.00
84055;BME280;74141;51.504;7.122;2024-03-23T02:03:26;100142.56;;;6.15;100.00
84055;BME280;74141;51.504;7.122;2024-03-23T02:05:53;100154.84;;;6.13;100.00
84055;BME280;74141;51.504;7.122;2024-03-23T02:08:20;100160.16;;;6.10;100.00
84055;BME280;74141;51.504;7.122;2024-03-23T02:10:46;100155.81;;;6.09;100.00
84055;BME280;74141;51.504;7.122;2024-03-23T02:13:14;100142.78;;;6.08;100.00
84055;BME280;74141;51.504;7.122;2024-03-23T02:15:40;100135.97;;;6.04;100.00
84055;BME280;74141;51.504;7.122;2024-03-23T02:18:12;100133.47;;;5.99;100.00
84055;BME280;74141;51.504;7.122;2024-03-23T02:20:38;100140.34;;;6.03;100.00
84055;BME280;74141;51.504;7.122;2024-03-23T02:23:13;100136.81;;;6.04;100.00
84055;BME280;74141;51.504;7.122;2024-03-23T02:25:39;100145.66;;;6.00;100.00
84055;BME280;74141;51.504;7.122;2024-03-23T02:28:13;100141.28;;;6.01;100.00
84055;BME280;74141;51.504;7.122;2024-03-23T02:30:38;100143.88;;;6.01;100.00
84055;BME280;74141;51.504;7.122;2024-03-23T02:33:12;100147.28;;;6.04;100.00
84055;BME280;74141;51.504;7.122;2024-03-23T02:35:38;100143.75;;;6.05;100.00
84055;BME280;74141;51.504;7.122;2024-03-23T02:38:12;100144.75;;;6.01;100.00
84055;BME280;74141;51.504;7.122;2024-03-23T02:40:37;100141.19;;;6.04;100.00
84055;BME280;74141;51.504;7.122;2024-03-23T02:43:12;100144.66;;;6.04;100.00
84055;BME280;74141;51.504;7.122;2024-03-23T02:45:37;100137.59;;;6.06;100.00
84055;BME280;74141;51.504;7.122;2024-03-23T02:48:12;100136.81;;;6.04;100.00
84055;BME280;74141;51.504;7.122;2024-03-23T02:50:37;100138.66;;;6.01;100.00
84055;BME280;74141;51.504;7.122;2024-03-23T02:53:12;100132.63;;;5.99;100.00
84055;BME280;74141;51.504;7.122;2024-03-23T02:55:37;100124.81;;;5.99;100.00
84055;BME280;74141;51.504;7.122;2024-03-23T02:58:12;100126.53;;;5.98;100.00
84055;BME280;74141;51.504;7.122;2024-03-23T03:00:37;100135.22;;;6.00;100.00
84055;BME280;74141;51.504;7.122;2024-03-23T03:03:02;100139.56;;;6.00;100.00
84055;BME280;74141;51.504;7.122;2024-03-23T03:05:28;100146.69;;;5.95;100.00
84055;BME280;74141;51.504;7.122;2024-03-23T03:07:53;100150.16;;;5.95;100.00
84055;BME280;74141;51.504;7.122;2024-03-23T03:10:19;100152.81;;;5.94;100.00
84055;BME280;74141;51.504;7.122;2024-03-23T03:12:44;100146.63;;;5.96;100.00
84055;BME280;74141;51.504;7.122;2024-03-23T03:15:09;100143.09;;;5.99;100.00
84055;BME280;74141;51.504;7.122;2024-03-23T03:17:35;100142.31;;;5.95;100.00
84055;BME280;74141;51.504;7.122;2024-03-23T03:20:00;100134.25;;;6.03;100.00
84055;BME280;74141;51.504;7.122;2024-03-23T03:22:25;100116.09;;;5.98;100.00
84055;BME280;74141;51.504;7.122;2024-03-23T03:24:51;100129.88;;;6.03;100.00
84055;BME280;74141;51.504;7.122;2024-03-23T03:27:16;100136.91;;;6.01;100.00
84055;BME280;74141;51.504;7.122;2024-03-23T03:29:41;100143.00;;;6.02;100.00
84055;BME280;74141;51.504;7.122;2024-03-23T03:32:07;100140.44;;;6.00;100.00
84055;BME280;74141;51.504;7.122;2024-03-23T03:34:32;100124.81;;;5.99;100.00
84055;BME280;74141;51.504;7.122;2024-03-23T03:36:57;100121.41;;;5.95;100.00
84055;BME280;74141;51.504;7.122;2024-03-23T03:39:23;100129.25;;;5.95;100.00
84055;BME280;74141;51.504;7.122;2024-03-23T03:41:49;100125.91;;;5.90;100.00
84055;BME280;74141;51.504;7.122;2024-03-23T03:44:14;100118.06;;;5.90;100.00
84055;BME280;74141;51.504;7.122;2024-03-23T03:46:40;100121.69;;;5.86;100.00
84055;BME280;74141;51.504;7.122;2024-03-23T03:49:05;100130.34;;;5.88;100.00
84055;BME280;74141;51.504;7.122;2024-03-23T03:51:30;100132.19;;;5.85;100.00
84055;BME280;74141;51.504;7.122;2024-03-23T03:53:56;100123.34;;;5.89;100.00
84055;BME280;74141;51.504;7.122;2024-03-23T03:56:21;100122.41;;;5.91;100.00
84055;BME280;74141;51.504;7.122;2024-03-23T03:58:47;100121.59;;;5.89;100.00
84055;BME280;74141;51.504;7.122;2024-03-23T04:01:12;100111.31;;;5.83;100.00
84055;BME280;74141;51.504;7.122;2024-03-23T04:03:38;100118.25;;;5.84;100.00
84055;BME280;74141;51.504;7.122;2024-03-23T04:06:08;100113.94;;;5.83;100.00
84055;BME280;74141;51.504;7.122;2024-03-23T04:08:33;100113.06;;;5.83;100.00
84055;BME280;74141;51.504;7.122;2024-03-23T04:10:59;100116.59;;;5.80;100.00
84055;BME280;74141;51.504;7.122;2024-03-23T04:13:24;100123.56;;;5.81;100.00
84055;BME280;74141;51.504;7.122;2024-03-23T04:15:53;100130.53;;;5.82;100.00
84055;BME280;74141;51.504;7.122;2024-03-23T04:18:19;100127.00;;;5.83;100.00
84055;BME280;74141;51.504;7.122;2024-03-23T04:20:44;100121.72;;;5.85;100.00
84055;BME280;74141;51.504;7.122;2024-03-23T04:23:09;100123.47;;;5.84;100.00
84055;BME280;74141;51.504;7.122;2024-03-23T04:25:35;100120.03;;;5.84;100.00
84055;BME280;74141;51.504;7.122;2024-03-23T04:28:00;100113.03;;;5.84;100.00
84055;BME280;74141;51.504;7.122;2024-03-23T04:30:26;100113.03;;;5.84;100.00
84055;BME280;74141;51.504;7.122;2024-03-23T04:32:53;100118.25;;;5.84;100.00
84055;BME280;74141;51.504;7.122;2024-03-23T04:35:18;100104.34;;;5.84;100.00
84055;BME280;74141;51.504;7.122;2024-03-23T04:37:45;100106.09;;;5.83;100.00
84055;BME280;74141;51.504;7.122;2024-03-23T04:40:10;100105.19;;;5.84;100.00
84055;BME280;74141;51.504;7.122;2024-03-23T04:42:36;100086.88;;;5.84;100.00
84055;BME280;74141;51.504;7.122;2024-03-23T04:45:03;100099.84;;;5.87;100.00
84055;BME280;74141;51.504;7.122;2024-03-23T04:47:28;100098.97;;;5.88;100.00
84055;BME280;74141;51.504;7.122;2024-03-23T04:49:53;100105.03;;;5.89;100.00
84055;BME280;74141;51.504;7.122;2024-03-23T04:52:19;100102.47;;;5.87;100.00
84055;BME280;74141;51.504;7.122;2024-03-23T04:54:44;100101.63;;;5.87;100.00
84055;BME280;74141;51.504;7.122;2024-03-23T04:57:12;100106.03;;;5.85;100.00
84055;BME280;74141;51.504;7.122;2024-03-23T04:59:38;100111.28;;;5.85;100.00
84055;BME280;74141;51.504;7.122;2024-03-23T05:02:03;100106.97;;;5.84;100.00
84055;BME280;74141;51.504;7.122;2024-03-23T05:04:28;100105.19;;;5.84;100.00
84055;BME280;74141;51.504;7.122;2024-03-23T05:06:54;100110.41;;;5.84;100.00
84055;BME280;74141;51.504;7.122;2024-03-23T05:09:19;100109.44;;;5.88;100.00
84055;BME280;74141;51.504;7.122;2024-03-23T05:11:45;100099.16;;;5.82;100.00
84055;BME280;74141;51.504;7.122;2024-03-23T05:14:12;100106.88;;;5.87;100.00
84055;BME280;74141;51.504;7.122;2024-03-23T05:16:38;100101.59;;;5.88;100.00
84055;BME280;74141;51.504;7.122;2024-03-23T05:19:03;100104.22;;;5.88;100.00
84055;BME280;74141;51.504;7.122;2024-03-23T05:21:28;100106.81;;;5.88;100.00
84055;BME280;74141;51.504;7.122;2024-03-23T05:23:54;100112.00;;;5.90;100.00
84055;BME280;74141;51.504;7.122;2024-03-23T05:26:19;100108.56;;;5.88;100.00
84055;BME280;74141;51.504;7.122;2024-03-23T05:28:45;100121.59;;;5.89;100.00
84055;BME280;74141;51.504;7.122;2024-03-23T05:31:10;100114.47;;;5.94;100.00
84055;BME280;74141;51.504;7.122;2024-03-23T05:33:36;100119.81;;;5.91;100.00
84055;BME280;74141;51.504;7.122;2024-03-23T05:36:05;100123.19;;;5.93;100.00
84055;BME280;74141;51.504;7.122;2024-03-23T05:38:30;100119.81;;;5.91;100.00
84055;BME280;74141;51.504;7.122;2024-03-23T05:40:59;100123.19;;;5.93;100.00
84055;BME280;74141;51.504;7.122;2024-03-23T05:43:25;100130.16;;;5.94;100.00
84055;BME280;74141;51.504;7.122;2024-03-23T05:48:19;100121.50;;;5.92;100.00
84055;BME280;74141;51.504;7.122;2024-03-23T05:50:45;100119.72;;;5.94;100.00
84055;BME280;74141;51.504;7.122;2024-03-23T05:53:10;100117.09;;;5.94;100.00
84055;BME280;74141;51.504;7.122;2024-03-23T05:55:35;100120.44;;;5.98;100.00
84055;BME280;74141;51.504;7.122;2024-03-23T05:58:00;100127.47;;;5.97;100.00
84055;BME280;74141;51.504;7.122;2024-03-23T06:00:26;100115.19;;;5.99;100.00
84055;BME280;74141;51.504;7.122;2024-03-23T06:02:51;100119.53;;;6.00;100.00
84055;BME280;74141;51.504;7.122;2024-03-23T06:05:16;100117.59;;;6.05;100.00
84055;BME280;74141;51.504;7.122;2024-03-23T06:07:42;100122.66;;;6.11;100.00
84055;BME280;74141;51.504;7.122;2024-03-23T06:10:07;100124.41;;;6.11;100.00
84055;BME280;74141;51.504;7.122;2024-03-23T06:12:33;100120.84;;;6.13;100.00
84055;BME280;74141;51.504;7.122;2024-03-23T06:14:58;100122.56;;;6.14;100.00
84055;BME280;74141;51.504;7.122;2024-03-23T06:17:23;100123.13;;;6.24;100.00
84055;BME280;74141;51.504;7.122;2024-03-23T06:19:49;100123.38;;;6.16;100.00
84055;BME280;74141;51.504;7.122;2024-03-23T06:22:14;100128.38;;;6.24;100.00
84055;BME280;74141;51.504;7.122;2024-03-23T06:24:39;100132.81;;;6.20;100.00
84055;BME280;74141;51.504;7.122;2024-03-23T06:27:05;100140.56;;;6.23;100.00
84055;BME280;74141;51.504;7.122;2024-03-23T06:29:30;100134.63;;;6.18;100.00
84055;BME280;74141;51.504;7.122;2024-03-23T06:31:55;100140.03;;;6.12;100.00
84055;BME280;74141;51.504;7.122;2024-03-23T06:34:21;100137.66;;;6.05;100.00
84055;BME280;74141;51.504;7.122;2024-03-23T06:36:48;100137.50;;;6.09;100.00
84055;BME280;74141;51.504;7.122;2024-03-23T06:39:14;100140.19;;;6.36;100.00
84055;BME280;74141;51.504;7.122;2024-03-23T06:41:52;100141.81;;;6.66;100.00
84055;BME280;74141;51.504;7.122;2024-03-23T06:44:17;100145.25;;;6.68;100.00
84055;BME280;74141;51.504;7.122;2024-03-23T06:46:43;100142.16;;;6.81;100.00
84055;BME280;74141;51.504;7.122;2024-03-23T06:49:08;100147.00;;;6.93;100.00
84055;BME280;74141;51.504;7.122;2024-03-23T06:51:33;100141.88;;;6.90;100.00
84055;BME280;74141;51.504;7.122;2024-03-23T06:53:59;100144.97;;;7.26;100.00
84055;BME280;74141;51.504;7.122;2024-03-23T06:56:24;100129.84;;;7.80;97.97
84055;BME280;74141;51.504;7.122;2024-03-23T06:58:49;100154.91;;;8.33;95.98
84055;BME280;74141;51.504;7.122;2024-03-23T07:01:14;100158.41;;;8.55;95.89
84055;BME280;74141;51.504;7.122;2024-03-23T07:03:40;100157.34;;;8.81;93.92
84055;BME280;74141;51.504;7.122;2024-03-23T07:06:05;100147.19;;;8.93;93.14
84055;BME280;74141;51.504;7.122;2024-03-23T07:08:30;100151.78;;;9.08;92.69
84055;BME280;74141;51.504;7.122;2024-03-23T07:10:56;100153.03;;;9.40;91.26
84055;BME280;74141;51.504;7.122;2024-03-23T07:13:21;100152.09;;;9.61;90.83
84055;BME280;74141;51.504;7.122;2024-03-23T07:15:52;100150.28;;;10.00;89.04
84055;BME280;74141;51.504;7.122;2024-03-23T07:18:18;100151.13;;;10.20;86.44
84055;BME280;74141;51.504;7.122;2024-03-23T07:20:52;100154.03;;;10.14;85.68
84055;BME280;74141;51.504;7.122;2024-03-23T07:23:17;100153.53;;;10.61;84.39
84055;BME280;74141;51.504;7.122;2024-03-23T07:25:42;100141.50;;;10.38;84.55
84055;BME280;74141;51.504;7.122;2024-03-23T07:28:08;100142.75;;;10.29;83.25
84055;BME280;74141;51.504;7.122;2024-03-23T07:30:33;100147.22;;;10.65;82.58
84055;BME280;74141;51.504;7.122;2024-03-23T07:32:58;100141.94;;;10.82;82.64
84055;BME280;74141;51.504;7.122;2024-03-23T07:35:23;100144.72;;;10.62;81.61
84055;BME280;74141;51.504;7.122;2024-03-23T07:37:49;100143.41;;;10.87;83.40
84055;BME280;74141;51.504;7.122;2024-03-23T07:40:14;100136.88;;;10.60;82.24
84055;BME280;74141;51.504;7.122;2024-03-23T07:42:39;100147.88;;;10.68;82.72
84055;BME280;74141;51.504;7.122;2024-03-23T07:45:05;100145.38;;;11.01;79.29
84055;BME280;74141;51.504;7.122;2024-03-23T07:47:30;100154.84;;;11.05;79.91
84055;BME280;74141;51.504;7.122;2024-03-23T07:49:56;100153.25;;;11.35;79.94
84055;BME280;74141;51.504;7.122;2024-03-23T07:52:21;100160.88;;;11.24;79.66
84055;BME280;74141;51.504;7.122;2024-03-23T07:54:46;100155.94;;;11.18;78.20
84055;BME280;74141;51.504;7.122;2024-03-23T07:57:12;100152.47;;;11.50;77.38
84055;BME280;74141;51.504;7.122;2024-03-23T07:59:37;100151.66;;;10.98;77.65
84055;BME280;74141;51.504;7.122;2024-03-23T08:02:02;100153.56;;;10.95;78.21
84055;BME280;74141;51.504;7.122;2024-03-23T08:04:28;100157.41;;;11.06;77.30
84055;BME280;74141;51.504;7.122;2024-03-23T08:06:54;100156.06;;;10.98;80.79
84055;BME280;74141;51.504;7.122;2024-03-23T08:09:19;100151.13;;;10.20;79.91
84055;BME280;74141;51.504;7.122;2024-03-23T08:11:44;100153.88;;;10.36;81.03
84055;BME280;74141;51.504;7.122;2024-03-23T08:14:11;100161.09;;;10.85;78.73
84055;BME280;74141;51.504;7.122;2024-03-23T08:16:37;100152.78;;;10.76;77.22
84055;BME280;74141;51.504;7.122;2024-03-23T08:19:02;100160.56;;;10.96;78.40
84055;BME280;74141;51.504;7.122;2024-03-23T08:21:29;100154.50;;;10.77;76.90
84055;BME280;74141;51.504;7.122;2024-03-23T08:23:54;100151.38;;;10.69;76.37
84055;BME280;74141;51.504;7.122;2024-03-23T08:26:19;100156.00;;;10.64;77.61
84055;BME280;74141;51.504;7.122;2024-03-23T08:28:45;100148.81;;;10.67;75.77
84055;BME280;74141;51.504;7.122;2024-03-23T08:31:11;100154.28;;;10.46;75.41
84055;BME280;74141;51.504;7.122;2024-03-23T08:33:37;100146.59;;;10.94;74.99
84055;BME280;74141;51.504;7.122;2024-03-23T08:36:05;100148.94;;;10.83;75.68
84055;BME280;74141;51.504;7.122;2024-03-23T08:38:30;100145.28;;;11.36;73.69
84055;BME280;74141;51.504;7.122;2024-03-23T08:43:23;100139.88;;;10.88;72.55
84055;BME280;74141;51.504;7.122;2024-03-23T08:45:48;100141.81;;;11.02;72.60
84055;BME280;74141;51.504;7.122;2024-03-23T08:48:14;100137.00;;;10.93;71.56
84055;BME280;74141;51.504;7.122;2024-03-23T08:50:39;100134.69;;;10.87;72.91
84055;BME280;74141;51.504;7.122;2024-03-23T08:53:04;100127.88;;;11.17;72.93
84055;BME280;74141;51.504;7.122;2024-03-23T08:55:29;100138.19;;;10.52;73.48
84055;BME280;74141;51.504;7.122;2024-03-23T08:57:55;100134.19;;;10.43;71.73
84055;BME280;74141;51.504;7.122;2024-03-23T09:00:21;100129.56;;;10.12;72.12
84055;BME280;74141;51.504;7.122;2024-03-23T09:02:50;100139.53;;;10.04;72.16
84055;BME280;74141;51.504;7.122;2024-03-23T09:05:15;100140.69;;;9.99;72.82
84055;BME280;74141;51.504;7.122;2024-03-23T09:07:40;100137.50;;;9.92;73.11
84055;BME280;74141;51.504;7.122;2024-03-23T09:10:07;100131.78;;;9.64;72.43
84055;BME280;74141;51.504;7.122;2024-03-23T09:12:32;100144.13;;;9.62;73.84
84055;BME280;74141;51.504;7.122;2024-03-23T09:14:58;100153.78;;;9.62;74.08
84055;BME280;74141;51.504;7.122;2024-03-23T09:17:23;100155.06;;;9.53;72.90
84055;BME280;74141;51.504;7.122;2024-03-23T09:19:48;100154.03;;;9.37;73.22
84055;BME280;74141;51.504;7.122;2024-03-23T09:22:14;100157.72;;;9.13;73.64
84055;BME280;74141;51.504;7.122;2024-03-23T09:24:39;100149.22;;;9.47;74.24
84055;BME280;74141;51.504;7.122;2024-03-23T09:27:05;100161.06;;;10.14;72.96
84055;BME280;74141;51.504;7.122;2024-03-23T09:29:30;100148.03;;;10.29;71.87
84055;BME280;74141;51.504;7.122;2024-03-23T09:31:55;100161.63;;;10.75;69.75
84055;BME280;74141;51.504;7.122;2024-03-23T09:34:21;100155.38;;;10.94;69.29
84055;BME280;74141;51.504;7.122;2024-03-23T09:36:47;100163.38;;;11.27;68.21
84055;BME280;74141;51.504;7.122;2024-03-23T09:39:13;100160.16;;;11.54;66.25
84055;BME280;74141;51.504;7.122;2024-03-23T09:41:39;100161.69;;;12.08;65.95
84055;BME280;74141;51.504;7.122;2024-03-23T09:44:05;100147.38;;;12.27;63.57
84055;BME280;74141;51.504;7.122;2024-03-23T09:46:30;100140.19;;;11.83;64.75
84055;BME280;74141;51.504;7.122;2024-03-23T09:48:59;100154.97;;;11.53;66.25
84055;BME280;74141;51.504;7.122;2024-03-23T09:51:25;100155.03;;;11.51;65.59
84055;BME280;74141;51.504;7.122;2024-03-23T09:53:51;100138.56;;;11.14;65.92
84055;BME280;74141;51.504;7.122;2024-03-23T09:56:17;100144.84;;;10.94;67.47
84055;BME280;74141;51.504;7.122;2024-03-23T09:58:42;100142.78;;;10.65;68.65
84055;BME280;74141;51.504;7.122;2024-03-23T10:01:08;100118.91;;;10.51;68.07
84055;BME280;74141;51.504;7.122;2024-03-23T10:03:42;100135.78;;;10.47;68.54
84055;BME280;74141;51.504;7.122;2024-03-23T10:06:08;100140.41;;;10.42;68.37
84055;BME280;74141;51.504;7.122;2024-03-23T10:08:33;100140.59;;;10.20;68.18
84055;BME280;74141;51.504;7.122;2024-03-23T10:11:15;100110.47;;;10.26;66.14
84055;BME280;74141;51.504;7.122;2024-03-23T10:13:42;100123.66;;;10.62;66.12
84055;BME280;74141;51.504;7.122;2024-03-23T10:16:09;100126.28;;;11.30;64.43
84055;BME280;74141;51.504;7.122;2024-03-23T10:18:38;100114.75;;;11.48;63.22
84055;BME280;74141;51.504;7.122;2024-03-23T10:21:10;100118.06;;;11.36;61.34
84055;BME280;74141;51.504;7.122;2024-03-23T10:23:38;100107.06;;;11.28;59.41
84055;BME280;74141;51.504;7.122;2024-03-23T10:31:33;100105.91;;;11.16;60.58
84055;BME280;74141;51.504;7.122;2024-03-23T10:34:02;100092.75;;;10.82;60.74
84055;BME280;74141;51.504;7.122;2024-03-23T10:36:29;100106.38;;;10.73;62.73
84055;BME280;74141;51.504;7.122;2024-03-23T10:38:55;100115.13;;;10.91;61.21
84055;BME280;74141;51.504;7.122;2024-03-23T10:41:21;100106.91;;;11.31;59.27
84055;BME280;74141;51.504;7.122;2024-03-23T10:43:48;100117.19;;;11.85;58.56
84055;BME280;74141;51.504;7.122;2024-03-23T10:46:14;100109.94;;;11.73;56.46
84055;BME280;74141;51.504;7.122;2024-03-23T10:48:40;100113.78;;;11.83;56.72
84055;BME280;74141;51.504;7.122;2024-03-23T10:51:08;100113.34;;;11.75;55.97
84055;BME280;74141;51.504;7.122;2024-03-23T10:53:34;100116.66;;;11.29;56.94
84055;BME280;74141;51.504;7.122;2024-03-23T10:56:00;100102.34;;;10.83;57.49
84055;BME280;74141;51.504;7.122;2024-03-23T10:58:31;100103.97;;;10.69;58.31
84055;BME280;74141;51.504;7.122;2024-03-23T11:00:58;100138.06;;;10.36;60.97
84055;BME280;74141;51.504;7.122;2024-03-23T11:03:34;100149.03;;;9.31;68.70
84055;BME280;74141;51.504;7.122;2024-03-23T11:06:00;100151.03;;;8.43;75.61
84055;BME280;74141;51.504;7.122;2024-03-23T11:08:46;100150.97;;;8.00;78.31
84055;BME280;74141;51.504;7.122;2024-03-23T11:11:18;100154.59;;;7.73;74.03
84055;BME280;74141;51.504;7.122;2024-03-23T11:13:47;100159.44;;;7.60;75.04
84055;BME280;74141;51.504;7.122;2024-03-23T11:16:31;100163.13;;;7.55;77.85
84055;BME280;74141;51.504;7.122;2024-03-23T11:19:35;100157.28;;;7.71;77.59
84055;BME280;74141;51.504;7.122;2024-03-23T11:22:04;100172.84;;;7.76;74.57
84055;BME280;74141;51.504;7.122;2024-03-23T11:24:30;100167.50;;;7.79;75.83
84055;BME280;74141;51.504;7.122;2024-03-23T11:26:55;100164.06;;;8.23;74.24
84055;BME280;74141;51.504;7.122;2024-03-23T11:29:21;100172.13;;;8.83;71.79
84055;BME280;74141;51.504;7.122;2024-03-23T11:31:50;100154.81;;;8.99;68.98
84055;BME280;74141;51.504;7.122;2024-03-23T11:34:16;100147.69;;;9.61;69.42
84055;BME280;74141;51.504;7.122;2024-03-23T11:36:42;100156.81;;;9.73;69.28
84055;BME280;74141;51.504;7.122;2024-03-23T11:39:18;100151.13;;;10.00;67.60
84055;BME280;74141;51.504;7.122;2024-03-23T11:41:50;100152.59;;;10.26;66.44
84055;BME280;74141;51.504;7.122;2024-03-23T11:44:20;100140.63;;;10.73;65.40
84055;BME280;74141;51.504;7.122;2024-03-23T11:46:47;100139.00;;;10.88;62.98
84055;BME280;74141;51.504;7.122;2024-03-23T11:49:26;100140.97;;;10.84;64.29
84055;BME280;74141;51.504;7.122;2024-03-23T11:51:53;100136.81;;;10.79;63.31
84055;BME280;74141;51.504;7.122;2024-03-23T11:54:24;100128.19;;;11.11;63.16
84055;BME280;74141;51.504;7.122;2024-03-23T11:57:03;100133.34;;;10.95;61.84
84055;BME280;74141;51.504;7.122;2024-03-23T11:59:33;100129.72;;;11.15;63.48
84055;BME280;74141;51.504;7.122;2024-03-23T12:01:59;100123.03;;;11.42;61.55
84055;BME280;74141;51.504;7.122;2024-03-23T12:04:28;100119.59;;;11.40;62.00
84055;BME280;74141;51.504;7.122;2024-03-23T12:09:43;100099.13;;;12.40;57.89
84055;BME280;74141;51.504;7.122;2024-03-23T12:12:18;100111.16;;;12.14;57.41
84055;BME280;74141;51.504;7.122;2024-03-23T12:15:02;100114.66;;;12.30;58.15
84055;BME280;74141;51.504;7.122;2024-03-23T12:17:27;100107.34;;;12.35;55.55
84055;BME280;74141;51.504;7.122;2024-03-23T12:19:53;100092.19;;;11.59;56.72
84055;BME280;74141;51.504;7.122;2024-03-23T12:22:21;100100.56;;;11.67;56.86
84055;BME280;74141;51.504;7.122;2024-03-23T12:24:47;100096.09;;;11.35;56.12
84055;BME280;74141;51.504;7.122;2024-03-23T12:27:13;100087.84;;;10.92;55.00
84055;BME280;74141;51.504;7.122;2024-03-23T12:29:38;100093.34;;;10.53;55.46
84055;BME280;74141;51.504;7.122;2024-03-23T12:32:04;100080.84;;;10.40;56.32
84055;BME280;74141;51.504;7.122;2024-03-23T12:34:30;100089.63;;;10.21;56.02
84055;BME280;74141;51.504;7.122;2024-03-23T12:36:56;100091.16;;;10.61;58.40
84055;BME280;74141;51.504;7.122;2024-03-23T12:39:22;100103.47;;;11.29;58.16
84055;BME280;74141;51.504;7.122;2024-03-23T12:41:48;100110.81;;;12.04;56.99
84055;BME280;74141;51.504;7.122;2024-03-23T12:44:13;100110.38;;;11.81;57.23
84055;BME280;74141;51.504;7.122;2024-03-23T12:46:41;100099.59;;;12.01;56.09
84055;BME280;74141;51.504;7.122;2024-03-23T12:49:06;100108.78;;;12.25;56.73
84055;BME280;74141;51.504;7.122;2024-03-23T12:51:32;100097.34;;;12.40;55.50
84055;BME280;74141;51.504;7.122;2024-03-23T12:53:58;100109.38;;;12.14;55.50
84055;BME280;74141;51.504;7.122;2024-03-23T12:56:23;100099.22;;;11.59;56.81
84055;BME280;74141;51.504;7.122;2024-03-23T12:58:48;100118.47;;;11.61;58.59
84055;BME280;74141;51.504;7.122;2024-03-23T13:01:19;100115.13;;;11.25;59.09
84055;BME280;74141;51.504;7.122;2024-03-23T13:03:47;100121.03;;;10.96;60.32
84055;BME280;74141;51.504;7.122;2024-03-23T13:06:14;100120.31;;;11.26;59.94
84055;BME280;74141;51.504;7.122;2024-03-23T13:08:39;100131.50;;;10.97;59.79
84055;BME280;74141;51.504;7.122;2024-03-23T13:11:06;100122.53;;;10.49;61.62
84055;BME280;74141;51.504;7.122;2024-03-23T13:13:33;100136.44;;;9.96;66.25
84055;BME280;74141;51.504;7.122;2024-03-23T13:15:59;100137.72;;;9.29;73.90
84055;BME280;74141;51.504;7.122;2024-03-23T13:18:24;100146.06;;;8.12;81.69
84055;BME280;74141;51.504;7.122;2024-03-23T13:20:49;100136.81;;;7.35;85.33
84055;BME280;74141;51.504;7.122;2024-03-23T13:23:14;100137.34;;;7.20;86.97
84055;BME280;74141;51.504;7.122;2024-03-23T13:25:40;100138.50;;;7.36;88.74
84055;BME280;74141;51.504;7.122;2024-03-23T13:28:05;100135.13;;;7.57;91.21
84055;BME280;74141;51.504;7.122;2024-03-23T13:30:30;100122.78;;;7.59;87.09
84055;BME280;74141;51.504;7.122;2024-03-23T13:32:56;100133.78;;;7.68;87.74
84055;BME280;74141;51.504;7.122;2024-03-23T13:35:21;100131.81;;;7.75;85.76
84055;BME280;74141;51.504;7.122;2024-03-23T13:37:47;100118.19;;;7.65;85.75
84055;BME280;74141;51.504;7.122;2024-03-23T13:40:13;100127.69;;;7.68;86.05
84055;BME280;74141;51.504;7.122;2024-03-23T13:42:39;100147.53;;;7.52;82.56
84055;BME280;74141;51.504;7.122;2024-03-23T13:45:04;100124.69;;;7.31;82.42
84055;BME280;74141;51.504;7.122;2024-03-23T13:47:29;100133.78;;;7.21;84.83
84055;BME280;74141;51.504;7.122;2024-03-23T13:49:55;100124.13;;;7.23;89.37
84055;BME280;74141;51.504;7.122;2024-03-23T13:52:21;100114.94;;;7.11;86.99
84055;BME280;74141;51.504;7.122;2024-03-23T13:54:48;100128.09;;;7.10;87.05